sensor_id;sensor_type;location;lat;lon;timestamp;P1;durP1;ratioP1;P2;durP2;ratioP2
23406;SDS011;11876;53.438;18.942;2022-09-13T00:02:07;5.35;;;4.57;;
23406;SDS011;11876;53.438;18.942;2022-09-13T00:07:11;4.85;;;4.35;;
23406;SDS011;11876;53.438;18.942;2022-09-13T00:12:17;7.43;;;5.82;;
23406;SDS011;11876;53.438;18.942;2022-09-13T00:17:24;7.10;;;6.40;;
23406;SDS011;11876;53.438;18.942;2022-09-13T00:22:28;7.32;;;6.28;;
23406;SDS011;11876;53.438;18.942;2022-09-13T00:27:34;9.13;;;6.90;;
23406;SDS011;11876;53.438;18.942;2022-09-13T00:32:39;9.15;;;7.63;;
23406;SDS011;11876;53.438;18.942;2022-09-13T00:37:45;10.60;;;8.43;;
23406;SDS011;11876;53.438;18.942;2022-09-13T00:42:49;9.43;;;7.30;;
23406;SDS011;11876;53.438;18.942;2022-09-13T00:48:00;7.57;;;6.55;;
23406;SDS011;11876;53.438;18.942;2022-09-13T00:58:34;11.77;;;7.88;;
23406;SDS011;11876;53.438;18.942;2022-09-13T01:03:44;10.77;;;7.32;;
23406;SDS011;11876;53.438;18.942;2022-09-13T01:08:51;7.50;;;6.75;;
23406;SDS011;11876;53.438;18.942;2022-09-13T01:13:56;8.13;;;6.90;;
23406;SDS011;11876;53.438;18.942;2022-09-13T01:19:00;10.05;;;6.72;;
23406;SDS011;11876;53.438;18.942;2022-09-13T01:40:34;7.53;;;6.03;;
23406;SDS011;11876;53.438;18.942;2022-09-13T01:46:28;6.10;;;5.50;;
23406;SDS011;11876;53.438;18.942;2022-09-13T01:57:36;7.60;;;6.10;;
23406;SDS011;11876;53.438;18.942;2022-09-13T02:08:11;5.03;;;3.90;;
23406;SDS011;11876;53.438;18.942;2022-09-13T02:13:34;9.43;;;5.80;;
23406;SDS011;11876;53.438;18.942;2022-09-13T02:18:41;5.97;;;5.38;;
23406;SDS011;11876;53.438;18.942;2022-09-13T02:23:50;7.65;;;5.43;;
23406;SDS011;11876;53.438;18.942;2022-09-13T02:28:57;5.95;;;4.85;;
23406;SDS011;11876;53.438;18.942;2022-09-13T02:39:17;6.18;;;4.60;;
23406;SDS011;11876;53.438;18.942;2022-09-13T02:55:15;4.88;;;4.35;;
23406;SDS011;11876;53.438;18.942;2022-09-13T03:00:42;4.22;;;3.55;;
23406;SDS011;11876;53.438;18.942;2022-09-13T03:05:48;5.32;;;3.78;;
23406;SDS011;11876;53.438;18.942;2022-09-13T03:11:08;11.68;;;5.97;;
23406;SDS011;11876;53.438;18.942;2022-09-13T03:33:03;6.20;;;5.53;;
23406;SDS011;11876;53.438;18.942;2022-09-13T03:38:31;7.15;;;6.38;;
23406;SDS011;11876;53.438;18.942;2022-09-13T03:43:44;10.68;;;6.75;;
23406;SDS011;11876;53.438;18.942;2022-09-13T03:48:51;8.43;;;6.55;;
23406;SDS011;11876;53.438;18.942;2022-09-13T03:53:58;7.25;;;6.55;;
23406;SDS011;11876;53.438;18.942;2022-09-13T03:59:06;9.45;;;7.00;;
23406;SDS011;11876;53.438;18.942;2022-09-13T04:04:10;9.82;;;7.10;;
23406;SDS011;11876;53.438;18.942;2022-09-13T04:09:15;9.18;;;7.50;;
23406;SDS011;11876;53.438;18.942;2022-09-13T04:14:19;11.20;;;8.95;;
23406;SDS011;11876;53.438;18.942;2022-09-13T04:19:25;12.60;;;8.30;;
23406;SDS011;11876;53.438;18.942;2022-09-13T04:24:30;9.93;;;8.32;;
23406;SDS011;11876;53.438;18.942;2022-09-13T04:29:36;10.95;;;9.23;;
23406;SDS011;11876;53.438;18.942;2022-09-13T04:34:40;13.48;;;11.63;;
23406;SDS011;11876;53.438;18.942;2022-09-13T04:39:46;16.60;;;14.75;;
23406;SDS011;11876;53.438;18.942;2022-09-13T04:44:51;16.08;;;13.63;;
23406;SDS011;11876;53.438;18.942;2022-09-13T04:49:57;14.95;;;13.27;;
23406;SDS011;11876;53.438;18.942;2022-09-13T04:55:02;12.27;;;11.07;;
23406;SDS011;11876;53.438;18.942;2022-09-13T05:00:07;13.57;;;10.07;;
23406;SDS011;11876;53.438;18.942;2022-09-13T05:05:11;10.70;;;8.93;;
23406;SDS011;11876;53.438;18.942;2022-09-13T05:10:17;9.70;;;7.90;;
23406;SDS011;11876;53.438;18.942;2022-09-13T05:15:21;8.38;;;7.57;;
23406;SDS011;11876;53.438;18.942;2022-09-13T05:20:25;10.73;;;8.70;;
23406;SDS011;11876;53.438;18.942;2022-09-13T05:25:30;7.90;;;7.05;;
23406;SDS011;11876;53.438;18.942;2022-09-13T05:30:35;9.80;;;6.90;;
23406;SDS011;11876;53.438;18.942;2022-09-13T05:35:43;9.80;;;7.35;;
23406;SDS011;11876;53.438;18.942;2022-09-13T05:40:47;7.53;;;6.00;;
23406;SDS011;11876;53.438;18.942;2022-09-13T05:51:13;8.63;;;7.00;;
23406;SDS011;11876;53.438;18.942;2022-09-13T05:56:20;8.45;;;5.68;;
23406;SDS011;11876;53.438;18.942;2022-09-13T06:01:26;8.73;;;6.07;;
23406;SDS011;11876;53.438;18.942;2022-09-13T06:06:31;8.98;;;4.90;;
23406;SDS011;11876;53.438;18.942;2022-09-13T06:11:39;9.77;;;4.90;;
23406;SDS011;11876;53.438;18.942;2022-09-13T06:16:46;8.82;;;4.80;;
23406;SDS011;11876;53.438;18.942;2022-09-13T06:21:52;11.67;;;6.17;;
23406;SDS011;11876;53.438;18.942;2022-09-13T06:26:56;8.15;;;5.75;;
23406;SDS011;11876;53.438;18.942;2022-09-13T06:32:03;7.00;;;4.97;;
23406;SDS011;11876;53.438;18.942;2022-09-13T06:37:08;6.40;;;5.75;;
23406;SDS011;11876;53.438;18.942;2022-09-13T06:42:12;6.65;;;6.05;;
23406;SDS011;11876;53.438;18.942;2022-09-13T06:47:17;8.45;;;6.00;;
23406;SDS011;11876;53.438;18.942;2022-09-13T06:52:21;6.18;;;4.90;;
23406;SDS011;11876;53.438;18.942;2022-09-13T06:57:28;14.65;;;6.97;;
23406;SDS011;11876;53.438;18.942;2022-09-13T07:02:38;6.53;;;5.10;;
23406;SDS011;11876;53.438;18.942;2022-09-13T07:07:43;10.05;;;5.68;;
23406;SDS011;11876;53.438;18.942;2022-09-13T07:12:48;8.20;;;4.68;;
23406;SDS011;11876;53.438;18.942;2022-09-13T07:17:53;7.93;;;4.78;;
23406;SDS011;11876;53.438;18.942;2022-09-13T07:22:58;5.82;;;4.85;;
23406;SDS011;11876;53.438;18.942;2022-09-13T07:28:05;6.32;;;4.68;;
23406;SDS011;11876;53.438;18.942;2022-09-13T07:33:10;6.47;;;4.50;;
23406;SDS011;11876;53.438;18.942;2022-09-13T07:38:18;9.57;;;5.30;;
23406;SDS011;11876;53.438;18.942;2022-09-13T07:43:23;11.02;;;5.85;;
23406;SDS011;11876;53.438;18.942;2022-09-13T07:48:34;10.50;;;6.13;;
23406;SDS011;11876;53.438;18.942;2022-09-13T07:53:42;11.57;;;5.40;;
23406;SDS011;11876;53.438;18.942;2022-09-13T07:58:54;7.22;;;6.05;;
23406;SDS011;11876;53.438;18.942;2022-09-13T08:04:02;10.93;;;5.45;;
23406;SDS011;11876;53.438;18.942;2022-09-13T08:09:09;8.75;;;6.13;;
23406;SDS011;11876;53.438;18.942;2022-09-13T08:14:16;4.75;;;4.18;;
23406;SDS011;11876;53.438;18.942;2022-09-13T08:19:22;7.10;;;5.53;;
23406;SDS011;11876;53.438;18.942;2022-09-13T08:24:30;7.05;;;6.30;;
23406;SDS011;11876;53.438;18.942;2022-09-13T08:29:35;10.13;;;6.35;;
23406;SDS011;11876;53.438;18.942;2022-09-13T08:34:44;9.50;;;6.75;;
23406;SDS011;11876;53.438;18.942;2022-09-13T08:39:48;10.13;;;7.05;;
23406;SDS011;11876;53.438;18.942;2022-09-13T08:44:53;10.25;;;7.38;;
23406;SDS011;11876;53.438;18.942;2022-09-13T08:50:10;13.93;;;8.07;;
23406;SDS011;11876;53.438;18.942;2022-09-13T08:55:27;10.65;;;8.70;;
23406;SDS011;11876;53.438;18.942;2022-09-13T09:00:54;9.63;;;8.07;;
23406;SDS011;11876;53.438;18.942;2022-09-13T09:06:09;15.75;;;10.23;;
23406;SDS011;11876;53.438;18.942;2022-09-13T09:16:54;10.02;;;9.10;;
23406;SDS011;11876;53.438;18.942;2022-09-13T09:22:16;14.73;;;10.38;;
23406;SDS011;11876;53.438;18.942;2022-09-13T09:27:21;11.45;;;8.95;;
23406;SDS011;11876;53.438;18.942;2022-09-13T09:37:59;10.55;;;9.43;;
23406;SDS011;11876;53.438;18.942;2022-09-13T09:43:26;11.88;;;9.57;;
23406;SDS011;11876;53.438;18.942;2022-09-13T09:48:43;10.18;;;8.55;;
23406;SDS011;11876;53.438;18.942;2022-09-13T09:53:53;15.80;;;8.73;;
23406;SDS011;11876;53.438;18.942;2022-09-13T09:59:04;10.00;;;8.98;;
23406;SDS011;11876;53.438;18.942;2022-09-13T10:04:30;14.93;;;10.48;;
23406;SDS011;11876;53.438;18.942;2022-09-13T10:09:35;10.65;;;9.35;;
23406;SDS011;11876;53.438;18.942;2022-09-13T10:14:42;24.17;;;9.90;;
23406;SDS011;11876;53.438;18.942;2022-09-13T10:25:22;11.05;;;9.23;;
23406;SDS011;11876;53.438;18.942;2022-09-13T10:30:36;10.45;;;8.20;;
23406;SDS011;11876;53.438;18.942;2022-09-13T10:36:01;12.68;;;8.90;;
23406;SDS011;11876;53.438;18.942;2022-09-13T10:41:08;10.73;;;7.80;;
23406;SDS011;11876;53.438;18.942;2022-09-13T10:46:25;8.67;;;7.70;;
23406;SDS011;11876;53.438;18.942;2022-09-13T10:51:33;14.07;;;7.93;;
23406;SDS011;11876;53.438;18.942;2022-09-13T10:56:39;8.68;;;7.88;;
23406;SDS011;11876;53.438;18.942;2022-09-13T11:17:41;8.37;;;7.30;;
23406;SDS011;11876;53.438;18.942;2022-09-13T11:23:20;8.13;;;7.40;;
23406;SDS011;11876;53.438;18.942;2022-09-13T11:45:23;8.40;;;7.13;;
23406;SDS011;11876;53.438;18.942;2022-09-13T11:56:15;9.88;;;8.32;;
23406;SDS011;11876;53.438;18.942;2022-09-13T12:01:46;13.85;;;7.80;;
23406;SDS011;11876;53.438;18.942;2022-09-13T12:06:56;7.72;;;6.93;;
23406;SDS011;11876;53.438;18.942;2022-09-13T12:12:05;7.57;;;6.82;;
23406;SDS011;11876;53.438;18.942;2022-09-13T12:22:35;8.93;;;8.02;;
23406;SDS011;11876;53.438;18.942;2022-09-13T12:28:02;7.85;;;6.72;;
23406;SDS011;11876;53.438;18.942;2022-09-13T12:33:14;7.40;;;6.70;;
23406;SDS011;11876;53.438;18.942;2022-09-13T13:00:38;8.33;;;6.97;;
23406;SDS011;11876;53.438;18.942;2022-09-13T13:05:53;8.55;;;7.75;;
23406;SDS011;11876;53.438;18.942;2022-09-13T13:11:11;8.23;;;7.43;;
23406;SDS011;11876;53.438;18.942;2022-09-13T13:16:34;14.25;;;12.73;;
23406;SDS011;11876;53.438;18.942;2022-09-13T13:21:42;8.50;;;7.43;;
23406;SDS011;11876;53.438;18.942;2022-09-13T13:26:54;7.60;;;6.80;;
23406;SDS011;11876;53.438;18.942;2022-09-13T13:52:35;6.95;;;5.25;;
23406;SDS011;11876;53.438;18.942;2022-09-13T14:03:37;6.95;;;6.28;;
23406;SDS011;11876;53.438;18.942;2022-09-13T14:13:51;6.13;;;5.50;;
23406;SDS011;11876;53.438;18.942;2022-09-13T14:24:29;59.60;;;39.97;;
23406;SDS011;11876;53.438;18.942;2022-09-13T14:29:34;19.50;;;17.17;;
23406;SDS011;11876;53.438;18.942;2022-09-13T14:34:38;21.42;;;19.23;;
23406;SDS011;11876;53.438;18.942;2022-09-13T14:45:28;88.93;;;69.33;;
23406;SDS011;11876;53.438;18.942;2022-09-13T14:50:37;34.75;;;24.08;;
23406;SDS011;11876;53.438;18.942;2022-09-13T14:55:48;11.20;;;8.38;;
23406;SDS011;11876;53.438;18.942;2022-09-13T15:01:04;35.03;;;21.47;;
23406;SDS011;11876;53.438;18.942;2022-09-13T15:06:24;15.25;;;12.80;;
23406;SDS011;11876;53.438;18.942;2022-09-13T15:11:31;15.10;;;10.98;;
23406;SDS011;11876;53.438;18.942;2022-09-13T15:16:49;11.75;;;10.55;;
23406;SDS011;11876;53.438;18.942;2022-09-13T15:22:03;46.00;;;25.48;;
23406;SDS011;11876;53.438;18.942;2022-09-13T15:27:55;63.30;;;32.28;;
23406;SDS011;11876;53.438;18.942;2022-09-13T15:32:47;51.88;;;30.10;;
23406;SDS011;11876;53.438;18.942;2022-09-13T15:37:59;52.13;;;31.02;;
23406;SDS011;11876;53.438;18.942;2022-09-13T15:43:04;36.10;;;23.02;;
23406;SDS011;11876;53.438;18.942;2022-09-13T15:48:14;49.05;;;30.20;;
23406;SDS011;11876;53.438;18.942;2022-09-13T15:53:23;14.20;;;11.85;;
23406;SDS011;11876;53.438;18.942;2022-09-13T15:58:29;36.47;;;23.88;;
23406;SDS011;11876;53.438;18.942;2022-09-13T16:03:34;30.48;;;20.58;;
23406;SDS011;11876;53.438;18.942;2022-09-13T16:08:38;10.65;;;9.40;;
23406;SDS011;11876;53.438;18.942;2022-09-13T16:13:42;11.95;;;10.07;;
23406;SDS011;11876;53.438;18.942;2022-09-13T16:18:47;16.60;;;14.63;;
23406;SDS011;11876;53.438;18.942;2022-09-13T16:23:51;25.77;;;17.98;;
23406;SDS011;11876;53.438;18.942;2022-09-13T16:28:55;38.25;;;21.80;;
23406;SDS011;11876;53.438;18.942;2022-09-13T16:34:00;12.82;;;11.40;;
23406;SDS011;11876;53.438;18.942;2022-09-13T16:39:05;16.45;;;14.65;;
23406;SDS011;11876;53.438;18.942;2022-09-13T16:44:09;18.10;;;15.55;;
23406;SDS011;11876;53.438;18.942;2022-09-13T16:49:14;18.13;;;15.82;;
23406;SDS011;11876;53.438;18.942;2022-09-13T16:54:18;17.35;;;15.30;;
23406;SDS011;11876;53.438;18.942;2022-09-13T16:59:23;18.50;;;13.10;;
23406;SDS011;11876;53.438;18.942;2022-09-13T17:04:28;22.27;;;16.17;;
23406;SDS011;11876;53.438;18.942;2022-09-13T17:09:33;20.38;;;14.80;;
23406;SDS011;11876;53.438;18.942;2022-09-13T17:14:38;17.40;;;13.10;;
23406;SDS011;11876;53.438;18.942;2022-09-13T17:19:49;14.00;;;12.50;;
23406;SDS011;11876;53.438;18.942;2022-09-13T17:24:54;16.92;;;15.07;;
23406;SDS011;11876;53.438;18.942;2022-09-13T17:29:59;16.00;;;14.07;;
23406;SDS011;11876;53.438;18.942;2022-09-13T17:35:04;11.15;;;9.95;;
23406;SDS011;11876;53.438;18.942;2022-09-13T17:40:10;15.48;;;11.18;;
23406;SDS011;11876;53.438;18.942;2022-09-13T17:45:15;15.07;;;12.02;;
23406;SDS011;11876;53.438;18.942;2022-09-13T17:50:20;11.60;;;10.40;;
23406;SDS011;11876;53.438;18.942;2022-09-13T17:55:24;14.63;;;10.75;;
23406;SDS011;11876;53.438;18.942;2022-09-13T18:00:29;18.40;;;13.88;;
23406;SDS011;11876;53.438;18.942;2022-09-13T18:05:33;15.73;;;12.15;;
23406;SDS011;11876;53.438;18.942;2022-09-13T18:10:38;14.07;;;12.63;;
23406;SDS011;11876;53.438;18.942;2022-09-13T18:16:12;14.68;;;12.45;;
23406;SDS011;11876;53.438;18.942;2022-09-13T18:21:23;13.30;;;11.82;;
23406;SDS011;11876;53.438;18.942;2022-09-13T18:26:28;16.85;;;13.23;;
23406;SDS011;11876;53.438;18.942;2022-09-13T18:31:37;13.70;;;12.30;;
23406;SDS011;11876;53.438;18.942;2022-09-13T18:36:43;14.90;;;13.48;;
23406;SDS011;11876;53.438;18.942;2022-09-13T18:41:48;16.42;;;14.73;;
23406;SDS011;11876;53.438;18.942;2022-09-13T18:46:52;17.80;;;15.93;;
23406;SDS011;11876;53.438;18.942;2022-09-13T18:51:57;18.63;;;15.05;;
23406;SDS011;11876;53.438;18.942;2022-09-13T18:57:01;20.17;;;16.95;;
23406;SDS011;11876;53.438;18.942;2022-09-13T19:02:07;18.90;;;16.90;;
23406;SDS011;11876;53.438;18.942;2022-09-13T19:07:13;18.50;;;11.80;;
23406;SDS011;11876;53.438;18.942;2022-09-13T19:12:17;19.08;;;16.33;;
23406;SDS011;11876;53.438;18.942;2022-09-13T19:17:22;17.15;;;14.60;;
23406;SDS011;11876;53.438;18.942;2022-09-13T19:22:26;17.00;;;15.20;;
23406;SDS011;11876;53.438;18.942;2022-09-13T19:27:31;20.35;;;15.52;;
23406;SDS011;11876;53.438;18.942;2022-09-13T19:32:35;18.80;;;15.48;;
23406;SDS011;11876;53.438;18.942;2022-09-13T19:37:40;16.40;;;14.25;;
23406;SDS011;11876;53.438;18.942;2022-09-13T19:42:45;15.32;;;13.93;;
23406;SDS011;11876;53.438;18.942;2022-09-13T19:47:50;16.25;;;13.98;;
23406;SDS011;11876;53.438;18.942;2022-09-13T19:53:15;15.98;;;14.27;;
23406;SDS011;11876;53.438;18.942;2022-09-13T19:58:20;17.40;;;15.70;;
23406;SDS011;11876;53.438;18.942;2022-09-13T20:03:24;16.23;;;14.52;;
23406;SDS011;11876;53.438;18.942;2022-09-13T20:08:29;16.20;;;14.50;;
23406;SDS011;11876;53.438;18.942;2022-09-13T20:13:33;17.52;;;14.90;;
23406;SDS011;11876;53.438;18.942;2022-09-13T20:18:38;16.35;;;14.00;;
23406;SDS011;11876;53.438;18.942;2022-09-13T20:23:42;14.95;;;13.48;;
23406;SDS011;11876;53.438;18.942;2022-09-13T20:28:47;14.32;;;12.93;;
23406;SDS011;11876;53.438;18.942;2022-09-13T20:33:55;17.60;;;15.25;;
23406;SDS011;11876;53.438;18.942;2022-09-13T20:39:00;18.02;;;15.73;;
23406;SDS011;11876;53.438;18.942;2022-09-13T20:44:05;17.80;;;14.85;;
23406;SDS011;11876;53.438;18.942;2022-09-13T20:49:09;16.27;;;14.65;;
23406;SDS011;11876;53.438;18.942;2022-09-13T20:54:13;17.00;;;15.35;;
23406;SDS011;11876;53.438;18.942;2022-09-13T20:59:18;18.33;;;15.52;;
23406;SDS011;11876;53.438;18.942;2022-09-13T21:04:24;18.50;;;16.50;;
23406;SDS011;11876;53.438;18.942;2022-09-13T21:09:29;19.95;;;16.73;;
23406;SDS011;11876;53.438;18.942;2022-09-13T21:14:34;20.02;;;16.77;;
23406;SDS011;11876;53.438;18.942;2022-09-13T21:19:38;20.20;;;17.45;;
23406;SDS011;11876;53.438;18.942;2022-09-13T21:24:42;19.75;;;17.00;;
23406;SDS011;11876;53.438;18.942;2022-09-13T21:29:46;20.25;;;16.33;;
23406;SDS011;11876;53.438;18.942;2022-09-13T21:34:51;20.52;;;16.58;;
23406;SDS011;11876;53.438;18.942;2022-09-13T21:39:55;19.67;;;17.67;;
23406;SDS011;11876;53.438;18.942;2022-09-13T21:45:00;19.20;;;17.00;;
23406;SDS011;11876;53.438;18.942;2022-09-13T21:50:05;19.63;;;17.45;;
23406;SDS011;11876;53.438;18.942;2022-09-13T21:55:08;21.75;;;17.58;;
23406;SDS011;11876;53.438;18.942;2022-09-13T22:00:13;19.98;;;17.05;;
23406;SDS011;11876;53.438;18.942;2022-09-13T22:05:18;19.40;;;16.70;;
23406;SDS011;11876;53.438;18.942;2022-09-13T22:10:23;20.35;;;17.67;;
23406;SDS011;11876;53.438;18.942;2022-09-13T22:15:27;20.17;;;17.98;;
23406;SDS011;11876;53.438;18.942;2022-09-13T22:20:35;21.05;;;17.45;;
23406;SDS011;11876;53.438;18.942;2022-09-13T22:25:40;21.17;;;18.88;;
23406;SDS011;11876;53.438;18.942;2022-09-13T22:30:46;20.20;;;18.02;;
23406;SDS011;11876;53.438;18.942;2022-09-13T22:35:58;25.92;;;19.63;;
23406;SDS011;11876;53.438;18.942;2022-09-13T22:41:05;24.70;;;19.95;;
23406;SDS011;11876;53.438;18.942;2022-09-13T22:46:53;22.70;;;20.27;;
23406;SDS011;11876;53.438;18.942;2022-09-13T22:51:40;25.95;;;19.98;;
23406;SDS011;11876;53.438;18.942;2022-09-13T22:56:46;27.23;;;21.30;;
23406;SDS011;11876;53.438;18.942;2022-09-13T23:01:51;28.50;;;22.27;;
23406;SDS011;11876;53.438;18.942;2022-09-13T23:06:56;23.40;;;19.65;;
23406;SDS011;11876;53.438;18.942;2022-09-13T23:12:01;28.13;;;23.20;;
23406;SDS011;11876;53.438;18.942;2022-09-13T23:17:06;27.02;;;21.25;;
23406;SDS011;11876;53.438;18.942;2022-09-13T23:22:11;24.20;;;20.40;;
23406;SDS011;11876;53.438;18.942;2022-09-13T23:27:16;23.20;;;18.90;;
23406;SDS011;11876;53.438;18.942;2022-09-13T23:32:21;22.30;;;18.13;;
23406;SDS011;11876;53.438;18.942;2022-09-13T23:37:26;23.33;;;19.25;;
23406;SDS011;11876;53.438;18.942;2022-09-13T23:42:30;27.58;;;22.38;;
23406;SDS011;11876;53.438;18.942;2022-09-13T23:47:35;28.25;;;22.73;;
23406;SDS011;11876;53.438;18.942;2022-09-13T23:52:39;27.75;;;22.65;;
23406;SDS011;11876;53.438;18.942;2022-09-13T23:57:44;43.47;;;25.77;;
